createdAt,value
2023-05-16T00:01:55.233Z,7.72
2023-05-16T00:06:57.055Z,7.40
2023-05-16T00:11:59.551Z,7.85
2023-05-16T00:17:01.385Z,7.22
2023-05-16T00:22:04.301Z,6.70
2023-05-16T00:27:05.914Z,6.95
2023-05-16T00:32:08.841Z,6.68
2023-05-16T00:37:10.935Z,7.18
2023-05-16T00:42:12.568Z,7.75
2023-05-16T00:47:14.732Z,7.47
2023-05-16T00:52:16.518Z,7.63
2023-05-16T00:57:19.093Z,8.18
2023-05-16T01:02:20.903Z,10.57
2023-05-16T01:07:22.911Z,7.47
2023-05-16T01:12:37.248Z,6.85
2023-05-16T01:17:57.870Z,6.95
2023-05-16T01:23:34.325Z,6.05
2023-05-16T01:28:37.006Z,7.32
2023-05-16T01:33:38.636Z,6.85
2023-05-16T01:39:14.186Z,7.18
2023-05-16T01:44:41.208Z,6.45
2023-05-16T01:50:09.227Z,7.70
2023-05-16T01:55:16.721Z,7.38
2023-05-16T02:00:18.583Z,6.82
2023-05-16T02:05:20.251Z,6.75
2023-05-16T02:10:21.945Z,7.40
2023-05-16T02:15:23.724Z,7.22
2023-05-16T02:20:25.673Z,7.80
2023-05-16T02:25:27.607Z,7.15
2023-05-16T02:30:29.357Z,6.68
2023-05-16T02:35:31.019Z,7.20
2023-05-16T02:40:32.779Z,7.18
2023-05-16T02:45:34.388Z,6.20
2023-05-16T02:50:37.696Z,6.68
2023-05-16T02:55:39.741Z,6.93
2023-05-16T03:00:41.484Z,6.32
2023-05-16T03:05:44.227Z,6.40
2023-05-16T03:10:46.178Z,6.30
2023-05-16T03:15:48.936Z,6.70
2023-05-16T03:20:52.993Z,6.95
2023-05-16T03:25:54.856Z,7.53
2023-05-16T03:30:56.516Z,6.00
2023-05-16T03:35:58.237Z,5.78
2023-05-16T03:41:00.117Z,7.50
2023-05-16T03:46:02.470Z,6.78
2023-05-16T03:51:04.249Z,9.20
2023-05-16T03:56:06.188Z,7.82
2023-05-16T04:01:07.906Z,9.40
2023-05-16T04:06:09.597Z,9.23
2023-05-16T04:11:11.592Z,9.45
2023-05-16T04:16:13.223Z,8.75
2023-05-16T04:21:15.426Z,9.20
2023-05-16T04:26:17.117Z,10.20
2023-05-16T04:31:18.865Z,10.05
2023-05-16T04:36:21.209Z,10.48
2023-05-16T04:41:25.644Z,10.18
2023-05-16T04:46:27.296Z,10.02
2023-05-16T04:51:29.049Z,10.05
2023-05-16T04:56:30.684Z,9.82
2023-05-16T05:01:32.499Z,11.40
2023-05-16T05:06:34.135Z,10.43
2023-05-16T05:11:35.847Z,11.40
2023-05-16T05:16:37.582Z,11.77
2023-05-16T05:21:39.200Z,12.68
2023-05-16T05:26:41.113Z,11.43
2023-05-16T05:31:42.835Z,14.05
2023-05-16T05:36:44.577Z,13.07
2023-05-16T05:41:46.294Z,14.00
2023-05-16T05:46:48.155Z,13.65
2023-05-16T05:51:52.024Z,12.57
2023-05-16T05:56:53.623Z,13.80
2023-05-16T06:01:55.482Z,13.50
2023-05-16T06:06:57.168Z,13.77
2023-05-16T06:11:58.850Z,12.85
2023-05-16T06:17:00.539Z,12.88
2023-05-16T06:22:02.392Z,14.30
2023-05-16T06:27:04.193Z,13.85
2023-05-16T06:32:06.150Z,12.73
2023-05-16T06:37:07.800Z,12.93
2023-05-16T06:42:09.475Z,13.23
2023-05-16T06:47:12.587Z,13.32
2023-05-16T06:52:14.310Z,14.02
2023-05-16T06:57:16.495Z,14.77
2023-05-16T07:02:18.207Z,12.27
2023-05-16T07:07:19.885Z,13.43
2023-05-16T07:12:21.603Z,13.88
2023-05-16T07:17:23.383Z,13.02
2023-05-16T07:22:25.071Z,12.68
2023-05-16T07:27:28.003Z,12.40
2023-05-16T07:32:29.677Z,13.45
2023-05-16T07:37:31.504Z,14.23
2023-05-16T07:42:33.199Z,13.57
2023-05-16T07:47:35.578Z,12.57
2023-05-16T07:52:37.492Z,13.55
2023-05-16T07:57:39.337Z,12.98
2023-05-16T08:02:41.642Z,13.30
2023-05-16T08:07:43.377Z,12.63
2023-05-16T08:12:45.090Z,12.52
2023-05-16T08:17:46.890Z,13.90
2023-05-16T08:22:48.604Z,12.70
2023-05-16T08:27:51.228Z,14.50
2023-05-16T08:32:53.056Z,13.43
2023-05-16T08:37:54.835Z,13.38
2023-05-16T08:42:56.527Z,14.27
2023-05-16T08:48:01.387Z,13.70
2023-05-16T08:53:08.185Z,14.05
2023-05-16T08:58:10.873Z,15.25
2023-05-16T09:03:13.585Z,15.45
2023-05-16T09:08:15.517Z,14.25
2023-05-16T09:13:17.188Z,14.00
2023-05-16T09:18:21.933Z,14.35
2023-05-16T09:23:27.011Z,14.60
2023-05-16T09:28:29.039Z,14.10
2023-05-16T09:33:30.786Z,14.23
2023-05-16T09:38:32.515Z,14.82
2023-05-16T09:43:36.422Z,13.85
2023-05-16T09:48:51.860Z,13.52
2023-05-16T09:53:53.763Z,14.35
2023-05-16T09:58:55.534Z,14.40
2023-05-16T10:03:57.365Z,14.73
2023-05-16T10:09:02.300Z,15.40
2023-05-16T10:14:07.770Z,14.23
2023-05-16T10:19:11.816Z,13.93
2023-05-16T10:24:18.250Z,14.82
2023-05-16T10:29:20.898Z,14.43
2023-05-16T10:34:23.406Z,13.70
2023-05-16T10:39:25.968Z,14.50
2023-05-16T10:44:32.236Z,14.63
2023-05-16T10:49:33.970Z,14.45
2023-05-16T10:54:40.362Z,14.43
2023-05-16T10:59:44.820Z,13.40
2023-05-16T11:04:49.015Z,12.80
2023-05-16T11:10:04.735Z,13.27
2023-05-16T11:15:20.848Z,13.57
2023-05-16T11:20:27.749Z,14.27
2023-05-16T11:25:41.291Z,13.55
2023-05-16T11:30:49.768Z,12.57
2023-05-16T11:36:15.157Z,12.60
2023-05-16T11:41:18.794Z,12.88
2023-05-16T11:46:21.024Z,12.07
2023-05-16T11:51:23.141Z,12.32
2023-05-16T11:56:24.938Z,11.55
2023-05-16T12:01:35.803Z,11.98
2023-05-16T12:06:38.265Z,12.40
2023-05-16T12:11:43.065Z,12.75
2023-05-16T12:16:46.557Z,12.98
2023-05-16T12:21:48.378Z,12.95
2023-05-16T12:26:53.538Z,13.85
2023-05-16T12:31:55.344Z,13.77
2023-05-16T12:36:57.355Z,13.25
2023-05-16T12:42:05.557Z,13.38
2023-05-16T12:47:13.733Z,13.23
2023-05-16T12:52:20.681Z,12.95
2023-05-16T12:57:22.413Z,13.02
2023-05-16T13:02:24.437Z,13.50
2023-05-16T13:07:26.208Z,13.45
2023-05-16T13:12:28.593Z,12.90
2023-05-16T13:17:30.704Z,12.85
2023-05-16T13:22:33.179Z,12.52
2023-05-16T13:27:35.060Z,13.35
2023-05-16T13:32:36.773Z,12.55
2023-05-16T13:37:38.563Z,12.80
2023-05-16T13:42:40.175Z,12.80
2023-05-16T13:47:41.864Z,13.60
2023-05-16T13:52:43.917Z,14.27
2023-05-16T13:57:45.663Z,12.88
2023-05-16T14:02:47.677Z,13.48
2023-05-16T14:07:49.461Z,14.73
2023-05-16T14:12:51.970Z,13.10
2023-05-16T14:17:53.731Z,13.18
2023-05-16T14:22:55.551Z,13.38
2023-05-16T14:27:57.359Z,13.98
2023-05-16T14:32:59.360Z,13.18
2023-05-16T14:38:01.156Z,12.80
2023-05-16T14:43:04.444Z,13.15
2023-05-16T14:48:08.442Z,13.40
2023-05-16T14:53:10.368Z,13.52
2023-05-16T14:58:12.330Z,13.98
2023-05-16T15:03:15.827Z,14.20
2023-05-16T15:08:17.681Z,13.88
2023-05-16T15:13:19.479Z,14.18
2023-05-16T15:18:21.949Z,14.10
2023-05-16T15:23:23.644Z,14.18
2023-05-16T15:28:25.415Z,13.63
2023-05-16T15:33:27.096Z,13.35
2023-05-16T15:38:28.737Z,14.57
2023-05-16T15:43:30.377Z,13.90
2023-05-16T15:48:32.022Z,13.80
2023-05-16T15:53:33.696Z,14.55
2023-05-16T15:58:36.054Z,14.70
2023-05-16T16:03:37.880Z,14.77
2023-05-16T16:08:39.740Z,14.65
2023-05-16T16:13:41.424Z,14.73
2023-05-16T16:18:43.513Z,14.70
2023-05-16T16:23:45.342Z,15.52
2023-05-16T16:28:47.141Z,14.75
2023-05-16T16:33:49.342Z,14.75
2023-05-16T16:38:51.072Z,14.70
2023-05-16T16:43:52.933Z,14.30
2023-05-16T16:48:54.810Z,14.07
2023-05-16T16:53:58.619Z,14.70
2023-05-16T16:59:00.464Z,14.18
2023-05-16T17:04:02.254Z,14.52
2023-05-16T17:09:06.705Z,14.18
2023-05-16T17:14:10.657Z,13.82
2023-05-16T17:19:12.466Z,14.95
2023-05-16T17:24:14.118Z,14.43
2023-05-16T17:29:15.991Z,14.50
2023-05-16T17:34:17.693Z,14.65
2023-05-16T17:39:20.586Z,14.18
2023-05-16T17:44:22.287Z,14.27
2023-05-16T17:49:24.004Z,14.38
2023-05-16T17:54:27.219Z,13.77
2023-05-16T17:59:29.951Z,13.95
2023-05-16T18:04:31.636Z,13.88
2023-05-16T18:09:33.857Z,13.68
2023-05-16T18:14:35.630Z,13.65
2023-05-16T18:19:37.498Z,13.60
2023-05-16T18:24:39.902Z,13.40
2023-05-16T18:29:42.242Z,13.38
2023-05-16T18:34:43.872Z,12.73
2023-05-16T18:39:45.772Z,12.40
2023-05-16T18:44:47.446Z,12.73
2023-05-16T18:49:49.132Z,13.40
2023-05-16T18:54:50.781Z,11.57
2023-05-16T18:59:53.739Z,13.95
2023-05-16T19:04:56.360Z,13.55
2023-05-16T19:10:00.926Z,11.55
2023-05-16T19:15:05.084Z,10.90
2023-05-16T19:20:09.237Z,10.73
2023-05-16T19:25:11.029Z,8.93
2023-05-16T19:30:13.184Z,9.23
2023-05-16T19:35:14.936Z,8.98
2023-05-16T19:40:17.419Z,8.77
2023-05-16T19:45:19.357Z,8.88
2023-05-16T19:50:21.708Z,9.52
2023-05-16T19:55:23.519Z,8.57
2023-05-16T20:00:25.515Z,9.07
2023-05-16T20:05:27.512Z,9.85
2023-05-16T20:10:29.385Z,9.75
2023-05-16T20:15:31.254Z,9.27
2023-05-16T20:20:32.967Z,7.63
2023-05-16T20:25:35.182Z,8.10
2023-05-16T20:30:36.954Z,8.18
2023-05-16T20:35:38.645Z,8.40
2023-05-16T20:40:40.788Z,8.85
2023-05-16T20:45:42.516Z,9.00
2023-05-16T20:50:44.298Z,9.65
2023-05-16T20:55:46.129Z,9.90
2023-05-16T21:00:47.872Z,9.63
2023-05-16T21:05:49.591Z,9.85
2023-05-16T21:10:51.301Z,10.05
2023-05-16T21:15:52.960Z,9.68
2023-05-16T21:20:54.774Z,9.85
2023-05-16T21:25:56.504Z,10.50
2023-05-16T21:30:58.162Z,10.85
2023-05-16T21:36:00.598Z,10.93
2023-05-16T21:41:02.320Z,11.02
2023-05-16T21:46:04.049Z,10.38
2023-05-16T21:51:05.714Z,10.70
2023-05-16T21:56:07.643Z,10.00
2023-05-16T22:01:09.739Z,10.27
2023-05-16T22:06:11.371Z,9.80
2023-05-16T22:11:13.069Z,10.10
2023-05-16T22:16:15.283Z,10.60
2023-05-16T22:21:17.110Z,9.45
2023-05-16T22:26:18.773Z,10.80
2023-05-16T22:31:20.409Z,10.40
2023-05-16T22:36:22.167Z,10.27
2023-05-16T22:41:24.003Z,9.50
2023-05-16T22:46:26.793Z,11.05
2023-05-16T22:51:28.532Z,10.20
2023-05-16T22:56:30.500Z,10.77
2023-05-16T23:01:32.203Z,10.13
2023-05-16T23:06:34.525Z,10.57
2023-05-16T23:11:36.217Z,10.38
2023-05-16T23:16:37.919Z,9.90
2023-05-16T23:21:39.999Z,9.50
2023-05-16T23:26:41.696Z,9.75
2023-05-16T23:31:43.437Z,9.55
2023-05-16T23:36:45.124Z,10.48
2023-05-16T23:41:46.983Z,10.10
2023-05-16T23:46:48.834Z,9.63
2023-05-16T23:56:55.726Z,10.23
